Luke Air Force Base
KLUF : now visible

Airfield :











YOU CAN JOIN US ON...

 
LOGIN :

Register | Disclaimer

   EN    FR    IT 

 









Legend :    VFR   Marginal VFR   IFR   Intensive IFR   Very Intensive IFR
Visi :
Ceiling :
>= 8 km
>= 3000ft
5 to 8 km
1000 to 3000 ft
1500m to 5 km
500 to 1000 ft
800 to 1500m
200 to 500 ft
< 800m
< 200 ft
Symbols :   Thunderstorms  Fog  Heavy snow  Heavy precipitations  Wind > 20 kt






- Airport Elevation : 1085 ft


KLUF - Luke Air Force Base

CURRENT METAR :
  • 261458Z AUTO 28014G19KT 10SM OVC110 16/M11 A2981 RMK AO2 SLP087 T01561110 52027 $

EXPIRED METARs :
  • 261358Z AUTO 27010KT 10SM OVC110 17/M09 A2978 RMK AO2 SLP076 T01711089 $
  • 261308Z AUTO 30011KT 10SM BKN110 18/M07 A2976 RMK AO2 SLP069 $
  • 261258Z AUTO 30010KT 10SM BKN120 19/M06 A2975 RMK AO2 SLP065 T01851063 $

TAF COR TAF KLUF
Valid from the 26 at 13:00 until the 27 at 18:00 UTC


261316Z 2613/2718 27009KT 9999 SCT090 BKN110 QNH2970INS
TEMPO 2615/2620 27012G22KT
BECMG 2702/2703 03012G20KT 9999 FEW110 QNH2977INS
TEMPO 2704/2707 02020G30KT BKN090 520007
BECMG 2710/2711 VRB06KT 9999 FEW090 QNH2981INS TX25/2623Z TN13/2615Z
KZAB FIR / North America



MET'MAP, your aeronautical weather chart ! - Copyright ORBIFLY December 2007 - Disclaimer

ORBIFLY MET'MAP TEAM :

Programming & Development : Alexandra Zaïnal
Concept & original design : Baudouin d'Aumeries
Assistance for programming : Marc-Olivier Méhu
Technical & hardware support : Manuel Goepfert

Contact : metmap@orbifly.com




SOURCES & CREDITS :

   NOAA       Earth
Advisory